Time;durP1;ratioP1;P1;durP2;ratioP2;P2;SDS_P1;SDS_P2;PMS_P1;PMS_P2;Temp;Humidity;BMP_temperature;BMP_pressure;BME280_temperature;BME280_humidity;BME280_pressure;Samples;Min_cycle;Max_cycle;Signal;HPM_P1;HPM_P2
2022/09/07 00:00:11;;;;;;;;;;;;;;;17.14;100.00;95828.28;1043762;28;20340;-70
2022/09/07 00:00:42;;;;;;;;;;;;;;;17.14;100.00;95825.63;1043853;28;19934;-71
2022/09/07 00:01:12;;;;;;;;;;;;;;;17.15;100.00;95822.66;1044133;28;19909;-70
2022/09/07 00:01:42;;;;;;;;;;;;;;;17.13;100.00;95819.53;1043414;28;19936;-67
2022/09/07 00:02:13;;;;;;;;;;;;;;;17.13;100.00;95827.47;1039656;28;19909;-70
2022/09/07 00:02:43;;;;;;;;;;;;;;;17.12;100.00;95823.28;1035659;28;19916;-72
2022/09/07 00:03:13;;;;;;;;;;;;;;;17.12;100.00;95819.84;1035514;28;20004;-70
2022/09/07 00:03:44;;;;;;;;;;;;;;;17.11;100.00;95827.03;1039570;28;19924;-71
2022/09/07 00:04:14;;;;;;;;;;;;;;;17.09;100.00;95823.88;1043807;28;19909;-69
2022/09/07 00:04:44;;;;;;;;;;;;;;;17.08;100.00;95824.97;1043923;28;19920;-71
2022/09/07 00:05:15;;;;;;;;;;;;;;;17.07;100.00;95826.06;1043619;28;19916;-70
2022/09/07 00:05:46;;;;;;;;;;;;;;;17.05;100.00;95828.22;1035582;28;20739;-71
2022/09/07 00:06:16;;;;;;;;;;;;;;;17.04;100.00;95821.34;1035821;28;19909;-70
2022/09/07 00:06:46;;;;;;;;;;;;;;;17.03;100.00;95819.78;1039692;28;19921;-71
2022/09/07 00:07:19;;;;;;;;;;;;;;;17.01;100.00;95827.25;1039685;28;20011;-71
2022/09/07 00:07:50;;;;;;;;;;;;;;;16.99;100.00;95818.81;1036031;28;20474;-70
2022/09/07 00:08:21;;;;;;;;;;;;;;;16.98;100.00;95825.22;1040005;28;19917;-69
2022/09/07 00:08:51;;;;;;;;;;;;;;;16.96;100.00;95824.72;1039686;28;20653;-71
2022/09/07 00:09:22;;;;;;;;;;;;;;;16.95;100.00;95818.63;1039210;28;19915;-71
2022/09/07 00:09:52;;;;;;;;;;;;;;;16.95;100.00;95820.50;1043735;28;19913;-70
2022/09/07 00:10:22;;;;;;;;;;;;;;;16.93;100.00;95820.00;1035491;28;19913;-70
2022/09/07 00:11:12;;;;;;;;;;;;;;;16.90;100.00;95821.41;1039752;28;19967;-70
2022/09/07 00:11:42;;;;;;;;;;;;;;;16.89;100.00;95821.69;1032910;28;20538;-71
2022/09/07 00:12:12;;;;;;;;;;;;;;;16.86;100.00;95817.78;1040593;28;19913;-70
2022/09/07 00:12:43;;;;;;;;;;;;;;;16.86;100.00;95814.34;1039672;28;19913;-70
2022/09/07 00:13:16;;;;;;;;;;;;;;;16.86;100.00;95819.66;1039766;28;19913;-72
2022/09/07 00:13:46;;;;;;;;;;;;;;;16.85;100.00;95820.75;1043721;28;20013;-70
2022/09/07 00:14:16;;;;;;;;;;;;;;;16.83;100.00;95820.25;1035954;28;19909;-71
2022/09/07 00:14:47;;;;;;;;;;;;;;;16.82;100.00;95824.00;1039734;28;19920;-69
2022/09/07 00:15:17;;;;;;;;;;;;;;;16.81;100.00;95827.72;1039642;28;19951;-70
2022/09/07 00:15:48;;;;;;;;;;;;;;;16.78;100.00;95818.50;1035666;28;19917;-69
2022/09/07 00:16:28;;;;;;;;;;;;;;;16.78;100.00;95817.72;1039627;28;19967;-70
2022/09/07 00:16:58;;;;;;;;;;;;;;;16.77;100.00;95826.75;1039708;28;19924;-69
2022/09/07 00:17:29;;;;;;;;;;;;;;;16.75;100.00;95827.06;1035513;28;20011;-68
2022/09/07 00:17:59;;;;;;;;;;;;;;;16.73;100.00;95824.69;1036999;28;20417;-69
2022/09/07 00:18:30;;;;;;;;;;;;;;;16.72;100.00;95820.44;1040386;28;19917;-70
2022/09/07 00:19:01;;;;;;;;;;;;;;;16.70;100.00;95821.84;1035070;28;20426;-68
2022/09/07 00:19:31;;;;;;;;;;;;;;;16.69;100.00;95821.03;1035344;28;19940;-70
2022/09/07 00:20:02;;;;;;;;;;;;;;;16.69;100.00;95822.91;1035485;28;20016;-71
2022/09/07 00:20:32;;;;;;;;;;;;;;;16.67;100.00;95817.16;1039306;28;19920;-68
2022/09/07 00:21:03;;;;;;;;;;;;;;;16.66;100.00;95816.34;1039802;28;19913;-70
2022/09/07 00:21:34;;;;;;;;;;;;;;;16.65;100.00;95820.09;1039576;28;19917;-71
2022/09/07 00:22:05;;;;;;;;;;;;;;;16.63;100.00;95813.50;1039340;28;19958;-69
2022/09/07 00:22:35;;;;;;;;;;;;;;;16.61;100.00;95821.75;1035737;28;20353;-71
2022/09/07 00:23:05;;;;;;;;;;;;;;;16.59;100.00;95815.97;1035647;28;20324;-72
2022/09/07 00:23:36;;;;;;;;;;;;;;;16.59;100.00;95817.84;1043596;28;19916;-71
2022/09/07 00:24:06;;;;;;;;;;;;;;;16.59;100.00;95815.19;1043740;28;19924;-72
2022/09/07 00:24:37;;;;;;;;;;;;;;;16.62;100.00;95810.06;1043583;28;19920;-70
2022/09/07 00:25:07;;;;;;;;;;;;;;;16.61;100.00;95816.47;1047883;28;19923;-70
2022/09/07 00:25:38;;;;;;;;;;;;;;;16.61;100.00;95816.47;1039473;28;19988;-72
2022/09/07 00:26:16;;;;;;;;;;;;;;;16.64;100.00;95818.53;1035408;28;19936;-69
2022/09/07 00:26:46;;;;;;;;;;;;;;;16.65;100.00;95817.44;1027407;28;20021;-71
2022/09/07 00:27:19;;;;;;;;;;;;;;;16.66;100.00;95818.22;1028281;28;19950;-71
2022/09/07 00:27:49;;;;;;;;;;;;;;;16.65;100.00;95817.44;1031134;28;19921;-70
2022/09/07 00:28:20;;;;;;;;;;;;;;;16.64;100.00;95818.53;1036064;28;19917;-70
2022/09/07 00:28:50;;;;;;;;;;;;;;;16.65;100.00;95819.31;1035339;28;20340;-71
2022/09/07 00:29:21;;;;;;;;;;;;;;;16.68;100.00;95816.84;1038307;28;19920;-71
2022/09/07 00:29:51;;;;;;;;;;;;;;;16.70;100.00;95825.28;1035493;28;19913;-69
2022/09/07 00:30:21;;;;;;;;;;;;;;;16.60;100.00;95800.84;1027359;28;20412;-71
2022/09/07 00:30:51;;;;;;;;;;;;;;;16.73;100.00;95816.72;1037263;28;19924;-70
2022/09/07 00:31:22;;;;;;;;;;;;;;;16.73;100.00;95824.69;1039614;28;20176;-72
2022/09/07 00:31:52;;;;;;;;;;;;;;;16.76;100.00;95819.88;1035320;28;19992;-70
2022/09/07 00:32:23;;;;;;;;;;;;;;;16.77;100.00;95824.09;1039509;28;20337;-70
2022/09/07 00:32:53;;;;;;;;;;;;;;;16.77;100.00;95821.44;1035351;28;20436;-71
2022/09/07 00:33:23;;;;;;;;;;;;;;;16.77;100.00;95827.53;1035528;28;19913;-70
2022/09/07 00:33:55;;;;;;;;;;;;;;;16.79;100.00;95819.28;1031165;28;19906;-69
2022/09/07 00:34:26;;;;;;;;;;;;;;;16.79;100.00;95820.06;1031603;28;19902;-70
2022/09/07 00:34:56;;;;;;;;;;;;;;;16.77;100.00;95816.13;1031321;28;19942;-71
2022/09/07 00:35:26;;;;;;;;;;;;;;;16.79;100.00;95816.63;1027446;28;20016;-70
2022/09/07 00:35:57;;;;;;;;;;;;;;;16.80;100.00;95823.50;1031377;28;19914;-70
2022/09/07 00:36:27;;;;;;;;;;;;;;;16.79;100.00;95819.28;1027429;28;20004;-69
2022/09/07 00:37:01;;;;;;;;;;;;;;;16.78;100.00;95817.72;1023253;29;19910;-70
2022/09/07 00:37:31;;;;;;;;;;;;;;;16.76;100.00;95822.53;1030786;28;19917;-72
2022/09/07 00:38:01;;;;;;;;;;;;;;;16.74;100.00;95820.16;1028196;28;20001;-70
2022/09/07 00:38:31;;;;;;;;;;;;;;;16.72;100.00;95820.44;1031836;28;19917;-69
2022/09/07 00:39:02;;;;;;;;;;;;;;;16.71;100.00;95823.41;1030757;28;19917;-70
2022/09/07 00:39:32;;;;;;;;;;;;;;;16.70;100.00;95822.63;1035197;28;19921;-71
2022/09/07 00:40:04;;;;;;;;;;;;;;;16.70;100.00;95824.50;1039551;28;19982;-70
2022/09/07 00:40:37;;;;;;;;;;;;;;;16.70;100.00;95825.28;1043770;28;20004;-71
2022/09/07 00:41:07;;;;;;;;;;;;;;;16.69;100.00;95821.03;1039872;28;19909;-70
2022/09/07 00:41:38;;;;;;;;;;;;;;;16.70;100.00;95821.84;1039536;28;19904;-70
2022/09/07 00:42:08;;;;;;;;;;;;;;;16.69;100.00;95821.03;1039573;28;19909;-70
2022/09/07 00:42:38;;;;;;;;;;;;;;;16.70;100.00;95821.84;1035405;28;19913;-69
2022/09/07 00:43:13;;;;;;;;;;;;;;;16.67;100.00;95828.53;1039108;28;19955;-69
2022/09/07 00:43:44;;;;;;;;;;;;;;;16.68;100.00;95827.44;1035386;28;19916;-70
2022/09/07 00:44:33;;;;;;;;;;;;;;;16.67;100.00;95828.53;1035554;28;20299;-71
2022/09/07 00:45:12;;;;;;;;;;;;;;;16.70;100.00;95824.50;1034384;28;20378;-71
2022/09/07 00:45:43;;;;;;;;;;;;;;;16.73;100.00;95834.47;1035218;28;19976;-70
2022/09/07 00:46:14;;;;;;;;;;;;;;;16.72;100.00;95828.41;1039158;28;20314;-70
2022/09/07 00:46:45;;;;;;;;;;;;;;;16.73;100.00;95837.94;1036831;28;19905;-68
2022/09/07 00:47:19;;;;;;;;;;;;;;;16.73;100.00;95826.53;1039381;28;19976;-70
2022/09/07 00:47:55;;;;;;;;;;;;;;;16.77;100.00;95832.03;1035811;28;19906;-70
2022/09/07 00:48:36;;;;;;;;;;;;;;;16.78;100.00;95833.63;1031172;28;19906;-70
2022/09/07 00:49:08;;;;;;;;;;;;;;;16.77;100.00;95832.03;1030690;28;19909;-70
2022/09/07 00:49:38;;;;;;;;;;;;;;;16.78;100.00;95838.94;1029259;28;19941;-69
2022/09/07 00:50:19;;;;;;;;;;;;;;;16.78;100.00;95838.94;1030396;28;20419;-66
2022/09/07 00:50:50;;;;;;;;;;;;;;;16.77;100.00;95835.50;1032945;28;19921;-70
2022/09/07 00:51:32;;;;;;;;;;;;;;;16.78;100.00;95838.94;1037095;28;19910;-70
2022/09/07 00:52:02;;;;;;;;;;;;;;;16.78;100.00;95823.81;1038404;28;20352;-70
2022/09/07 00:52:33;;;;;;;;;;;;;;;16.78;100.00;95831.75;1033044;28;20192;-71
2022/09/07 00:53:06;;;;;;;;;;;;;;;16.78;100.00;95828.31;1035294;28;19909;-70
2022/09/07 00:53:37;;;;;;;;;;;;;;;16.78;100.00;95833.63;1029721;28;19910;-70
2022/09/07 00:54:09;;;;;;;;;;;;;;;16.77;100.00;95837.34;1037233;28;19917;-69
2022/09/07 00:54:40;;;;;;;;;;;;;;;16.77;100.00;95838.16;1035970;28;20008;-70
2022/09/07 00:55:11;;;;;;;;;;;;;;;16.77;100.00;95832.03;1038505;28;19913;-70
2022/09/07 00:55:41;;;;;;;;;;;;;;;16.76;100.00;95830.47;1035613;28;20004;-70
2022/09/07 00:56:12;;;;;;;;;;;;;;;16.76;100.00;95835.78;1036542;28;19910;-70
2022/09/07 00:56:42;;;;;;;;;;;;;;;16.75;100.00;95834.22;1031993;28;20308;-70
2022/09/07 00:57:13;;;;;;;;;;;;;;;16.73;100.00;95831.81;1029994;28;19906;-70
2022/09/07 00:57:44;;;;;;;;;;;;;;;16.72;100.00;95835.56;1035247;28;19958;-71
2022/09/07 00:58:15;;;;;;;;;;;;;;;16.71;100.00;95840.09;1029025;28;19905;-70
2022/09/07 00:58:45;;;;;;;;;;;;;;;16.71;100.00;95841.97;1027321;28;19914;-70
2022/09/07 00:59:16;;;;;;;;;;;;;;;16.71;100.00;95840.09;1018839;29;19914;-71
2022/09/07 00:59:47;;;;;;;;;;;;;;;16.70;100.00;95833.22;1023872;28;20000;-70
2022/09/07 01:00:18;;;;;;;;;;;;;;;16.68;100.00;95835.38;1031458;28;20458;-71
2022/09/07 01:00:48;;;;;;;;;;;;;;;16.68;100.00;95838.03;1039425;28;19948;-72
2022/09/07 01:01:19;;;;;;;;;;;;;;;16.68;100.00;95840.69;1035406;28;19906;-69
2022/09/07 01:01:49;;;;;;;;;;;;;;;16.66;100.00;95839.41;1035154;28;19906;-69
2022/09/07 01:02:19;;;;;;;;;;;;;;;16.64;100.00;95834.41;1039651;28;19917;-70
2022/09/07 01:02:50;;;;;;;;;;;;;;;16.64;100.00;95834.41;1043425;28;20346;-69
2022/09/07 01:03:27;;;;;;;;;;;;;;;16.62;100.00;95831.28;1035460;28;20658;-69
2022/09/07 01:03:58;;;;;;;;;;;;;;;16.65;100.00;95835.97;1035489;28;19916;-73
2022/09/07 01:04:29;;;;;;;;;;;;;;;16.62;100.00;95820.69;1040588;28;20342;-69
2022/09/07 01:05:01;;;;;;;;;;;;;;;16.62;100.00;95831.28;1038735;28;19931;-70
2022/09/07 01:05:33;;;;;;;;;;;;;;;16.61;100.00;95824.41;1035678;28;19905;-70
2022/09/07 01:06:04;;;;;;;;;;;;;;;16.61;100.00;95827.06;1035284;28;20371;-70
2022/09/07 01:06:35;;;;;;;;;;;;;;;16.60;100.00;95825.50;1027736;28;19910;-70
2022/09/07 01:07:06;;;;;;;;;;;;;;;16.60;100.00;95828.16;1027846;28;19984;-72
2022/09/07 01:07:36;;;;;;;;;;;;;;;16.60;100.00;95830.00;1027609;28;19910;-70
2022/09/07 01:08:06;;;;;;;;;;;;;;;16.57;100.00;95820.81;1031370;28;19948;-70
2022/09/07 01:08:37;;;;;;;;;;;;;;;16.57;100.00;95820.81;1035241;28;20430;-69
2022/09/07 01:09:09;;;;;;;;;;;;;;;16.57;100.00;95818.16;1030787;28;19905;-71
2022/09/07 01:09:41;;;;;;;;;;;;;;;16.57;100.00;95820.81;1031428;28;20590;-70
2022/09/07 01:10:12;;;;;;;;;;;;;;;16.56;100.00;95819.22;1031623;28;19916;-72
2022/09/07 01:10:42;;;;;;;;;;;;;;;16.57;100.00;95820.03;1031950;28;19933;-70
2022/09/07 01:11:13;;;;;;;;;;;;;;;16.56;100.00;95821.88;1031599;28;19916;-71
2022/09/07 01:11:49;;;;;;;;;;;;;;;16.55;100.00;95819.53;1035476;28;19956;-69
2022/09/07 01:12:19;;;;;;;;;;;;;;;16.55;100.00;95820.31;1036128;28;19964;-71
2022/09/07 01:12:50;;;;;;;;;;;;;;;16.54;100.00;95817.97;1036204;28;20302;-72
2022/09/07 01:13:20;;;;;;;;;;;;;;;16.53;100.00;95816.38;1039391;28;19909;-70
2022/09/07 01:13:51;;;;;;;;;;;;;;;16.52;100.00;95815.59;1039505;28;19921;-70
2022/09/07 01:14:25;;;;;;;;;;;;;;;16.49;100.00;95814.31;1039308;28;19913;-70
2022/09/07 01:14:55;;;;;;;;;;;;;;;16.50;100.00;95818.56;1040090;28;20594;-69
2022/09/07 01:15:47;;;;;;;;;;;;;;;16.50;100.00;95817.78;1043427;28;19911;-71
2022/09/07 01:16:22;;;;;;;;;;;;;;;16.50;100.00;95817.78;1043570;28;19916;-73
2022/09/07 01:16:53;;;;;;;;;;;;;;;16.50;100.00;95817.78;1043553;28;19912;-69
2022/09/07 01:17:32;;;;;;;;;;;;;;;16.51;100.00;95814.03;1035431;28;19952;-70
2022/09/07 01:18:06;;;;;;;;;;;;;;;16.49;100.00;95816.97;1035415;28;20000;-70
2022/09/07 01:18:40;;;;;;;;;;;;;;;16.49;100.00;95814.31;1030974;28;20348;-71
2022/09/07 01:19:13;;;;;;;;;;;;;;;16.50;100.00;95823.09;1030587;28;19902;-70
2022/09/07 01:19:48;;;;;;;;;;;;;;;16.51;100.00;95819.34;1032554;28;19956;-70
2022/09/07 01:20:29;;;;;;;;;;;;;;;16.52;100.00;95815.59;1035204;28;19977;-69
2022/09/07 01:21:18;;;;;;;;;;;;;;;16.52;100.00;95815.59;1037899;28;19918;-71
2022/09/07 01:22:00;;;;;;;;;;;;;;;16.52;100.00;95815.59;1035311;28;20378;-69
2022/09/07 01:22:49;;;;;;;;;;;;;;;16.53;100.00;95817.16;1043509;28;20011;-70
2022/09/07 01:23:19;;;;;;;;;;;;;;;16.54;100.00;95815.31;1043615;28;19913;-69
2022/09/07 01:24:05;;;;;;;;;;;;;;;16.52;100.00;95810.31;1043368;28;19931;-71
2022/09/07 01:24:44;;;;;;;;;;;;;;;16.55;100.00;95815.00;1043439;28;19912;-69
2022/09/07 01:25:34;;;;;;;;;;;;;;;16.54;100.00;95813.44;1042061;28;20766;-70
2022/09/07 01:26:25;;;;;;;;;;;;;;;16.56;100.00;95810.50;1045677;28;20334;-70
2022/09/07 01:27:14;;;;;;;;;;;;;;;16.58;100.00;95803.03;1043376;28;20293;-71
2022/09/07 01:27:47;;;;;;;;;;;;;;;16.61;100.00;95802.44;1043416;28;19920;-71
2022/09/07 01:28:21;;;;;;;;;;;;;;;16.59;100.00;95802.72;1038474;28;19951;-70
2022/09/07 01:28:55;;;;;;;;;;;;;;;16.60;100.00;95795.56;1038446;28;20517;-70
2022/09/07 01:29:34;;;;;;;;;;;;;;;16.60;100.00;95801.66;1034643;28;19905;-70
2022/09/07 01:30:05;;;;;;;;;;;;;;;16.60;100.00;95801.66;1037456;28;19920;-72
2022/09/07 01:30:36;;;;;;;;;;;;;;;16.60;100.00;95800.84;1036950;28;20291;-70
2022/09/07 01:31:06;;;;;;;;;;;;;;;16.61;100.00;95797.16;1032385;28;20650;-69
2022/09/07 01:31:48;;;;;;;;;;;;;;;16.60;100.00;95796.38;1035319;28;19980;-70
2022/09/07 01:32:34;;;;;;;;;;;;;;;16.60;100.00;95792.91;1036903;28;20325;-70
2022/09/07 01:33:04;;;;;;;;;;;;;;;16.60;100.00;95799.00;1035061;28;19968;-71
2022/09/07 01:33:42;;;;;;;;;;;;;;;16.60;100.00;95791.06;1031046;28;19909;-69
2022/09/07 01:34:25;;;;;;;;;;;;;;;16.59;100.00;95794.78;1034432;28;20604;-70
2022/09/07 01:34:55;;;;;;;;;;;;;;;16.60;100.00;95795.56;1037085;28;20392;-71
2022/09/07 01:35:41;;;;;;;;;;;;;;;16.59;100.00;95788.69;1036491;28;19914;-71
2022/09/07 01:36:17;;;;;;;;;;;;;;;16.60;100.00;95792.91;1040457;28;19917;-70
2022/09/07 01:36:49;;;;;;;;;;;;;;;16.60;100.00;95795.56;1039325;28;19915;-71
2022/09/07 01:37:31;;;;;;;;;;;;;;;16.60;100.00;95790.25;1035996;28;19917;-70
2022/09/07 01:38:07;;;;;;;;;;;;;;;16.59;100.00;95794.00;1036934;28;19913;-71
2022/09/07 01:38:37;;;;;;;;;;;;;;;16.57;100.00;95790.88;1035268;28;19913;-69
2022/09/07 01:39:08;;;;;;;;;;;;;;;16.56;100.00;95798.03;1035193;28;19917;-70
2022/09/07 01:40:01;;;;;;;;;;;;;;;16.57;100.00;95793.53;1035750;28;19917;-69
2022/09/07 01:41:01;;;;;;;;;;;;;;;16.55;100.00;95799.13;1031326;28;19917;-70
2022/09/07 01:41:39;;;;;;;;;;;;;;;16.59;100.00;95800.06;1017673;29;19915;-70
2022/09/07 01:42:11;;;;;;;;;;;;;;;16.60;100.00;95799.00;1035215;28;20418;-70
2022/09/07 01:42:52;;;;;;;;;;;;;;;16.60;100.00;95795.56;1035252;28;19960;-69
2022/09/07 01:43:29;;;;;;;;;;;;;;;16.60;100.00;95795.56;1039283;28;19917;-70
2022/09/07 01:44:00;;;;;;;;;;;;;;;16.60;100.00;95795.56;1040214;28;20386;-69
2022/09/07 01:44:34;;;;;;;;;;;;;;;16.58;100.00;95797.75;1033776;28;19913;-71
2022/09/07 01:45:04;;;;;;;;;;;;;;;16.57;100.00;95802.25;1035291;28;20291;-70
2022/09/07 01:45:35;;;;;;;;;;;;;;;16.59;100.00;95794.78;1035661;28;20052;-70
2022/09/07 01:46:09;;;;;;;;;;;;;;;16.59;100.00;95797.44;1039392;28;20263;-69
2022/09/07 01:46:42;;;;;;;;;;;;;;;16.60;100.00;95796.38;1031044;28;19910;-70
2022/09/07 01:47:30;;;;;;;;;;;;;;;16.61;100.00;95797.91;1027175;28;19965;-70
2022/09/07 01:48:02;;;;;;;;;;;;;;;16.64;100.00;95802.63;1030779;28;19925;-67
2022/09/07 01:48:32;;;;;;;;;;;;;;;16.63;100.00;95795.78;1032809;28;20012;-70
2022/09/07 01:49:08;;;;;;;;;;;;;;;16.63;100.00;95794.97;1030596;28;19963;-68
2022/09/07 01:49:39;;;;;;;;;;;;;;;16.63;100.00;95797.59;1031807;28;19953;-69
2022/09/07 01:50:11;;;;;;;;;;;;;;;16.62;100.00;95794.19;1034293;28;19917;-70
2022/09/07 01:50:51;;;;;;;;;;;;;;;16.63;100.00;95798.41;1031219;28;19910;-70
2022/09/07 01:51:22;;;;;;;;;;;;;;;16.62;100.00;95793.41;1031973;28;20319;-71
2022/09/07 01:51:54;;;;;;;;;;;;;;;16.63;100.00;95793.13;1035594;28;19909;-72
2022/09/07 01:52:30;;;;;;;;;;;;;;;16.64;100.00;95794.69;1033857;28;19964;-69
2022/09/07 01:53:03;;;;;;;;;;;;;;;16.63;100.00;95795.78;1031671;28;19914;-73
2022/09/07 01:53:35;;;;;;;;;;;;;;;16.64;100.00;95793.91;1036495;28;19913;-70
2022/09/07 01:54:10;;;;;;;;;;;;;;;16.62;100.00;95788.88;1042470;28;20378;-70
2022/09/07 01:54:42;;;;;;;;;;;;;;;16.61;100.00;95789.97;1039167;28;19916;-69
2022/09/07 01:55:17;;;;;;;;;;;;;;;16.63;100.00;95794.97;1038558;28;20576;-70
2022/09/07 01:55:49;;;;;;;;;;;;;;;16.64;100.00;95793.91;1040783;28;19913;-70
2022/09/07 01:56:39;;;;;;;;;;;;;;;16.62;100.00;95788.88;1033287;28;19909;-70
2022/09/07 01:57:21;;;;;;;;;;;;;;;16.61;100.00;95787.31;1037781;28;19909;-71
2022/09/07 01:58:10;;;;;;;;;;;;;;;16.61;100.00;95783.91;1035093;28;20418;-70
2022/09/07 01:58:45;;;;;;;;;;;;;;;16.60;100.00;95784.97;1033622;28;20020;-70
2022/09/07 01:59:20;;;;;;;;;;;;;;;16.60;100.00;95785.75;1037832;28;20362;-70
2022/09/07 01:59:52;;;;;;;;;;;;;;;16.59;100.00;95786.81;1045280;28;20033;-71
2022/09/07 02:00:22;;;;;;;;;;;;;;;16.58;100.00;95781.84;1034961;28;19913;-69
2022/09/07 02:00:53;;;;;;;;;;;;;;;16.56;100.00;95779.47;1036881;28;20542;-71
2022/09/07 02:01:25;;;;;;;;;;;;;;;16.57;100.00;95775.75;1038915;28;19987;-68
2022/09/07 02:02:21;;;;;;;;;;;;;;;16.56;100.00;95776.81;1031975;28;19906;-70
2022/09/07 02:02:56;;;;;;;;;;;;;;;16.55;100.00;95777.91;1032594;28;19911;-71
2022/09/07 02:03:29;;;;;;;;;;;;;;;16.55;100.00;95779.78;1035481;28;19960;-71
2022/09/07 02:04:00;;;;;;;;;;;;;;;16.56;100.00;95774.19;1043468;28;19909;-71
2022/09/07 02:04:33;;;;;;;;;;;;;;;16.56;100.00;95784.00;1037929;28;19916;-70
2022/09/07 02:05:05;;;;;;;;;;;;;;;16.56;100.00;95782.13;1039241;28;19956;-71
2022/09/07 02:05:38;;;;;;;;;;;;;;;16.55;100.00;95782.44;1036048;28;19912;-71
2022/09/07 02:06:15;;;;;;;;;;;;;;;16.53;100.00;95777.41;1031037;28;19905;-69
2022/09/07 02:06:54;;;;;;;;;;;;;;;16.53;100.00;95780.06;1033240;28;19916;-70
2022/09/07 02:07:33;;;;;;;;;;;;;;;16.53;100.00;95785.38;1037369;28;19913;-70
2022/09/07 02:08:03;;;;;;;;;;;;;;;16.53;100.00;95777.41;1030244;28;20469;-71
2022/09/07 02:08:39;;;;;;;;;;;;;;;16.54;100.00;95778.22;1030879;28;19934;-72
2022/09/07 02:09:24;;;;;;;;;;;;;;;16.53;100.00;95779.28;1026649;28;19906;-72
2022/09/07 02:09:55;;;;;;;;;;;;;;;16.52;100.00;95773.22;1029791;28;19944;-70
2022/09/07 02:10:26;;;;;;;;;;;;;;;16.53;100.00;95774.00;1029938;28;19909;-70
2022/09/07 02:10:59;;;;;;;;;;;;;;;16.52;100.00;95773.22;1035287;28;19917;-70
2022/09/07 02:11:32;;;;;;;;;;;;;;;16.53;100.00;95772.13;1035282;28;19909;-70
2022/09/07 02:12:05;;;;;;;;;;;;;;;16.53;100.00;95769.47;1027893;28;19906;-71
2022/09/07 02:12:37;;;;;;;;;;;;;;;16.54;100.00;95775.59;1027249;28;20396;-72
2022/09/07 02:13:09;;;;;;;;;;;;;;;16.53;100.00;95768.69;1028046;28;19914;-71
2022/09/07 02:13:40;;;;;;;;;;;;;;;16.53;100.00;95774.78;1028614;28;19914;-67
2022/09/07 02:14:13;;;;;;;;;;;;;;;16.52;100.00;95772.44;1035866;28;19906;-69
2022/09/07 02:14:45;;;;;;;;;;;;;;;16.52;100.00;95770.56;1035296;28;19913;-72
2022/09/07 02:15:17;;;;;;;;;;;;;;;16.52;100.00;95783.81;1036920;28;19909;-70
2022/09/07 02:15:52;;;;;;;;;;;;;;;16.51;100.00;95774.31;1027032;28;19917;-70
2022/09/07 02:16:26;;;;;;;;;;;;;;;16.51;100.00;95774.31;1023268;29;19922;-69
2022/09/07 02:17:02;;;;;;;;;;;;;;;16.50;100.00;95775.41;1030024;28;20372;-71
2022/09/07 02:17:36;;;;;;;;;;;;;;;16.50;100.00;95778.03;1039288;28;19994;-71
2022/09/07 02:18:06;;;;;;;;;;;;;;;16.49;100.00;95779.09;1035037;28;19913;-71
2022/09/07 02:18:38;;;;;;;;;;;;;;;16.48;100.00;95780.97;1032277;28;19914;-71
2022/09/07 02:19:09;;;;;;;;;;;;;;;16.50;100.00;95775.41;1035413;28;19913;-70
2022/09/07 02:19:41;;;;;;;;;;;;;;;16.48;100.00;95775.69;1039830;28;19977;-70
2022/09/07 02:20:21;;;;;;;;;;;;;;;16.50;100.00;95772.75;1043471;28;19942;-71
2022/09/07 02:20:52;;;;;;;;;;;;;;;16.49;100.00;95777.25;1041038;28;19971;-71
2022/09/07 02:21:25;;;;;;;;;;;;;;;16.49;100.00;95779.09;1043381;28;20058;-70
2022/09/07 02:21:57;;;;;;;;;;;;;;;16.49;100.00;95781.75;1043200;28;19917;-68
2022/09/07 02:22:28;;;;;;;;;;;;;;;16.48;100.00;95782.84;1035794;28;19916;-68
2022/09/07 02:22:59;;;;;;;;;;;;;;;16.48;100.00;95777.56;1039229;28;20398;-70
2022/09/07 02:23:31;;;;;;;;;;;;;;;16.48;100.00;95777.56;1039032;28;19948;-69
2022/09/07 02:24:03;;;;;;;;;;;;;;;16.46;100.00;95777.06;1035673;28;19917;-71
2022/09/07 02:24:36;;;;;;;;;;;;;;;16.47;100.00;95776.00;1035102;28;20357;-71
2022/09/07 02:25:07;;;;;;;;;;;;;;;16.46;100.00;95775.22;1031062;28;20458;-71
2022/09/07 02:25:51;;;;;;;;;;;;;;;16.47;100.00;95776.00;1031552;28;19984;-70
2022/09/07 02:26:21;;;;;;;;;;;;;;;16.46;100.00;95779.69;1033353;28;20017;-70
2022/09/07 02:26:53;;;;;;;;;;;;;;;16.45;100.00;95778.16;1029051;28;20425;-71
2022/09/07 02:27:24;;;;;;;;;;;;;;;16.46;100.00;95774.41;1035013;28;19915;-70
2022/09/07 02:28:06;;;;;;;;;;;;;;;16.47;100.00;95783.94;1029379;28;19936;-72
2022/09/07 02:28:36;;;;;;;;;;;;;;;16.46;100.00;95779.69;1032605;28;19948;-71
2022/09/07 02:29:07;;;;;;;;;;;;;;;16.45;100.00;95778.94;1026454;28;19917;-71
2022/09/07 02:29:37;;;;;;;;;;;;;;;16.45;100.00;95778.16;1028385;28;19929;-73
2022/09/07 02:30:08;;;;;;;;;;;;;;;16.46;100.00;95787.66;1031171;28;20119;-71
2022/09/07 02:30:38;;;;;;;;;;;;;;;16.46;100.00;95785.00;1034050;28;20048;-69
2022/09/07 02:31:08;;;;;;;;;;;;;;;16.45;100.00;95783.44;1031033;28;19918;-70
2022/09/07 02:31:38;;;;;;;;;;;;;;;16.45;100.00;95783.44;1034188;28;19996;-71
2022/09/07 02:32:09;;;;;;;;;;;;;;;16.44;100.00;95789.84;1031910;28;19912;-70
2022/09/07 02:32:40;;;;;;;;;;;;;;;16.46;100.00;95790.28;1039497;28;19901;-70
2022/09/07 02:33:10;;;;;;;;;;;;;;;16.45;100.00;95786.88;1035298;28;20032;-70
2022/09/07 02:33:40;;;;;;;;;;;;;;;16.44;100.00;95793.25;1031223;28;19906;-71
2022/09/07 02:34:11;;;;;;;;;;;;;;;16.45;100.00;95789.53;1035303;28;19905;-71
2022/09/07 02:34:41;;;;;;;;;;;;;;;16.45;100.00;95791.38;1031200;28;19960;-71
2022/09/07 02:35:11;;;;;;;;;;;;;;;16.45;100.00;95789.53;1031397;28;20285;-70
2022/09/07 02:35:41;;;;;;;;;;;;;;;16.47;100.00;95790.00;1035035;28;19940;-70
2022/09/07 02:36:12;;;;;;;;;;;;;;;16.47;100.00;95795.31;1031242;28;19910;-71
2022/09/07 02:36:43;;;;;;;;;;;;;;;16.50;100.00;95794.72;1035337;28;19905;-71
2022/09/07 02:37:13;;;;;;;;;;;;;;;16.50;100.00;95792.06;1031262;28;19914;-70
2022/09/07 02:37:44;;;;;;;;;;;;;;;16.53;100.00;95790.66;1031224;28;19916;-71
2022/09/07 02:38:14;;;;;;;;;;;;;;;16.55;100.00;95793.81;1027343;28;19910;-70
2022/09/07 02:38:44;;;;;;;;;;;;;;;16.57;100.00;95796.19;1027350;28;19914;-71
2022/09/07 02:39:15;;;;;;;;;;;;;;;16.59;100.00;95794.78;1026742;28;20356;-71
2022/09/07 02:39:46;;;;;;;;;;;;;;;16.60;100.00;95800.84;1034901;28;19943;-70
2022/09/07 02:40:17;;;;;;;;;;;;;;;16.61;100.00;95802.44;1035562;28;19992;-72
2022/09/07 02:40:53;;;;;;;;;;;;;;;16.61;100.00;95797.16;1031322;28;20559;-70
2022/09/07 02:41:29;;;;;;;;;;;;;;;16.61;100.00;95803.22;1024048;28;20431;-70
2022/09/07 02:41:59;;;;;;;;;;;;;;;16.62;100.00;95807.44;1028864;28;19910;-70
2022/09/07 02:42:33;;;;;;;;;;;;;;;16.62;100.00;95807.44;1026525;28;19917;-70
2022/09/07 02:43:04;;;;;;;;;;;;;;;16.62;100.00;95804.78;1025499;28;19925;-71
2022/09/07 02:43:34;;;;;;;;;;;;;;;16.64;100.00;95805.28;1027355;28;19910;-70
2022/09/07 02:44:06;;;;;;;;;;;;;;;16.65;100.00;95808.69;1024396;28;19989;-70
2022/09/07 02:44:37;;;;;;;;;;;;;;;16.65;100.00;95803.41;1031931;28;20674;-71
2022/09/07 02:45:08;;;;;;;;;;;;;;;16.65;100.00;95803.41;1035619;28;19905;-69
2022/09/07 02:45:53;;;;;;;;;;;;;;;16.64;100.00;95802.63;1035802;28;19905;-69
2022/09/07 02:46:42;;;;;;;;;;;;;;;16.65;100.00;95814.78;1039317;28;19905;-70
2022/09/07 02:47:35;;;;;;;;;;;;;;;16.62;100.00;95806.66;1035679;28;20016;-70
2022/09/07 02:48:28;;;;;;;;;;;;;;;16.60;100.00;95812.25;1037887;28;20402;-70
2022/09/07 02:49:07;;;;;;;;;;;;;;;16.61;100.00;95805.09;1026784;28;20365;-72
2022/09/07 02:49:45;;;;;;;;;;;;;;;16.61;100.00;95797.91;1035337;28;20004;-70
2022/09/07 02:50:27;;;;;;;;;;;;;;;16.62;100.00;95804.00;1035366;28;19909;-71
2022/09/07 02:51:01;;;;;;;;;;;;;;;16.61;100.00;95805.88;1039154;28;20012;-71
2022/09/07 02:51:46;;;;;;;;;;;;;;;16.62;100.00;95804.78;1039270;28;19944;-71
2022/09/07 02:52:20;;;;;;;;;;;;;;;16.63;100.00;95805.56;1043430;28;19997;-69